Mato Grosso, Brazil
Current Conditions -  °F | °C
As of 1:00 PM on Tuesday 21 Oct 2014 (Local Time) from SLSI Reporting Station
Clear Clear  
Wind Chill: 88°   Ceiling: Unl
Heat Index: 94°   Visibility: 6mi
Dew Point: 72°   Wind: 7mph
Humidity: 58%   Direction: 90°E
Pressure: 29.97"   Gusts: NA
Location:  15.01°S, 59.94°W
Report Text: SLSI 211600Z 09006KT 9999 NSC 31/22 Q1015
Loading
Personal Weather Stations






























Interactive Weather Map
Tropical Storm Tracking
New forecast layout! Learn more

10-Day Weather Forecast

Advertisements
Track Severe Weather on mobile